sensor_id;sensor_type;location;lat;lon;timestamp;P1;durP1;ratioP1;P2;durP2;ratioP2
60344;SDS011;46188;52.324;8.032;2024-02-21T00:02:02;22.58;;;11.27;;
60344;SDS011;46188;52.324;8.032;2024-02-21T00:04:27;22.67;;;10.77;;
60344;SDS011;46188;52.324;8.032;2024-02-21T00:06:52;23.02;;;11.65;;
60344;SDS011;46188;52.324;8.032;2024-02-21T00:09:18;24.73;;;12.90;;
60344;SDS011;46188;52.324;8.032;2024-02-21T00:11:44;22.35;;;10.93;;
60344;SDS011;46188;52.324;8.032;2024-02-21T00:14:09;21.08;;;10.95;;
60344;SDS011;46188;52.324;8.032;2024-02-21T00:16:35;22.77;;;10.55;;
60344;SDS011;46188;52.324;8.032;2024-02-21T00:19:00;21.65;;;10.75;;
60344;SDS011;46188;52.324;8.032;2024-02-21T00:21:25;20.75;;;10.57;;
60344;SDS011;46188;52.324;8.032;2024-02-21T00:23:50;17.08;;;10.02;;
60344;SDS011;46188;52.324;8.032;2024-02-21T00:26:16;18.05;;;11.32;;
60344;SDS011;46188;52.324;8.032;2024-02-21T00:28:41;19.05;;;10.13;;
60344;SDS011;46188;52.324;8.032;2024-02-21T00:31:06;19.00;;;10.90;;
60344;SDS011;46188;52.324;8.032;2024-02-21T00:33:32;20.35;;;10.15;;
60344;SDS011;46188;52.324;8.032;2024-02-21T00:35:57;20.42;;;10.82;;
60344;SDS011;46188;52.324;8.032;2024-02-21T00:38:22;17.85;;;11.10;;
60344;SDS011;46188;52.324;8.032;2024-02-21T00:40:48;20.52;;;10.43;;
60344;SDS011;46188;52.324;8.032;2024-02-21T00:43:13;17.27;;;11.38;;
60344;SDS011;46188;52.324;8.032;2024-02-21T00:45:38;18.23;;;9.95;;
60344;SDS011;46188;52.324;8.032;2024-02-21T00:48:04;14.77;;;9.95;;
60344;SDS011;46188;52.324;8.032;2024-02-21T00:50:29;20.65;;;9.70;;
60344;SDS011;46188;52.324;8.032;2024-02-21T00:52:55;21.90;;;10.73;;
60344;SDS011;46188;52.324;8.032;2024-02-21T00:55:20;17.40;;;10.35;;
60344;SDS011;46188;52.324;8.032;2024-02-21T00:57:45;20.23;;;10.00;;
60344;SDS011;46188;52.324;8.032;2024-02-21T01:00:11;13.68;;;10.10;;
60344;SDS011;46188;52.324;8.032;2024-02-21T01:02:36;12.98;;;9.68;;
60344;SDS011;46188;52.324;8.032;2024-02-21T01:05:02;18.88;;;10.75;;
60344;SDS011;46188;52.324;8.032;2024-02-21T01:07:27;18.35;;;10.38;;
60344;SDS011;46188;52.324;8.032;2024-02-21T01:09:52;18.05;;;10.25;;
60344;SDS011;46188;52.324;8.032;2024-02-21T01:12:17;16.55;;;10.40;;
60344;SDS011;46188;52.324;8.032;2024-02-21T01:14:43;19.92;;;10.57;;
60344;SDS011;46188;52.324;8.032;2024-02-21T01:17:09;17.02;;;8.02;;
60344;SDS011;46188;52.324;8.032;2024-02-21T01:19:34;19.63;;;10.80;;
60344;SDS011;46188;52.324;8.032;2024-02-21T01:22:00;17.33;;;10.13;;
60344;SDS011;46188;52.324;8.032;2024-02-21T01:24:25;20.02;;;10.70;;
60344;SDS011;46188;52.324;8.032;2024-02-21T01:26:50;18.25;;;10.25;;
60344;SDS011;46188;52.324;8.032;2024-02-21T01:29:16;18.08;;;10.52;;
60344;SDS011;46188;52.324;8.032;2024-02-21T01:31:41;16.95;;;11.25;;
60344;SDS011;46188;52.324;8.032;2024-02-21T01:34:06;17.58;;;10.35;;
60344;SDS011;46188;52.324;8.032;2024-02-21T01:36:31;19.95;;;10.80;;
60344;SDS011;46188;52.324;8.032;2024-02-21T01:38:57;22.20;;;11.02;;
60344;SDS011;46188;52.324;8.032;2024-02-21T01:41:22;20.35;;;9.75;;
60344;SDS011;46188;52.324;8.032;2024-02-21T01:43:48;16.83;;;9.80;;
60344;SDS011;46188;52.324;8.032;2024-02-21T01:46:13;16.50;;;9.68;;
60344;SDS011;46188;52.324;8.032;2024-02-21T01:48:38;15.30;;;9.75;;
60344;SDS011;46188;52.324;8.032;2024-02-21T01:51:04;18.42;;;9.50;;
60344;SDS011;46188;52.324;8.032;2024-02-21T01:53:30;16.08;;;9.75;;
60344;SDS011;46188;52.324;8.032;2024-02-21T01:55:59;18.10;;;9.88;;
60344;SDS011;46188;52.324;8.032;2024-02-21T01:58:25;13.82;;;9.25;;
60344;SDS011;46188;52.324;8.032;2024-02-21T02:00:51;15.80;;;9.38;;
60344;SDS011;46188;52.324;8.032;2024-02-21T02:03:18;16.98;;;10.10;;
60344;SDS011;46188;52.324;8.032;2024-02-21T02:05:44;17.55;;;9.23;;
60344;SDS011;46188;52.324;8.032;2024-02-21T02:08:13;18.80;;;9.55;;
60344;SDS011;46188;52.324;8.032;2024-02-21T02:10:39;16.90;;;9.50;;
60344;SDS011;46188;52.324;8.032;2024-02-21T02:13:05;17.02;;;10.05;;
60344;SDS011;46188;52.324;8.032;2024-02-21T02:15:43;15.82;;;10.18;;
60344;SDS011;46188;52.324;8.032;2024-02-21T02:18:10;14.20;;;9.60;;
60344;SDS011;46188;52.324;8.032;2024-02-21T02:20:36;17.95;;;9.90;;
60344;SDS011;46188;52.324;8.032;2024-02-21T02:23:09;13.98;;;9.35;;
60344;SDS011;46188;52.324;8.032;2024-02-21T02:25:36;15.90;;;9.98;;
60344;SDS011;46188;52.324;8.032;2024-02-21T02:28:03;18.58;;;9.30;;
60344;SDS011;46188;52.324;8.032;2024-02-21T02:30:35;19.63;;;9.68;;
60344;SDS011;46188;52.324;8.032;2024-02-21T02:33:01;14.32;;;9.65;;
60344;SDS011;46188;52.324;8.032;2024-02-21T02:35:27;18.65;;;9.63;;
60344;SDS011;46188;52.324;8.032;2024-02-21T02:37:53;16.67;;;9.95;;
60344;SDS011;46188;52.324;8.032;2024-02-21T02:40:18;16.80;;;10.02;;
60344;SDS011;46188;52.324;8.032;2024-02-21T02:42:44;16.42;;;10.35;;
60344;SDS011;46188;52.324;8.032;2024-02-21T02:45:09;21.33;;;10.35;;
60344;SDS011;46188;52.324;8.032;2024-02-21T02:47:35;16.00;;;10.40;;
60344;SDS011;46188;52.324;8.032;2024-02-21T02:50:00;13.68;;;9.63;;
60344;SDS011;46188;52.324;8.032;2024-02-21T02:52:26;18.90;;;10.80;;
60344;SDS011;46188;52.324;8.032;2024-02-21T02:54:51;19.08;;;9.88;;
60344;SDS011;46188;52.324;8.032;2024-02-21T02:57:17;18.75;;;9.63;;
60344;SDS011;46188;52.324;8.032;2024-02-21T02:59:47;18.10;;;10.60;;
60344;SDS011;46188;52.324;8.032;2024-02-21T03:02:13;18.33;;;10.25;;
60344;SDS011;46188;52.324;8.032;2024-02-21T03:04:39;14.77;;;9.43;;
60344;SDS011;46188;52.324;8.032;2024-02-21T03:07:04;19.52;;;10.23;;
60344;SDS011;46188;52.324;8.032;2024-02-21T03:09:30;20.67;;;10.70;;
60344;SDS011;46188;52.324;8.032;2024-02-21T03:11:55;16.92;;;10.88;;
60344;SDS011;46188;52.324;8.032;2024-02-21T03:14:27;19.30;;;9.23;;
60344;SDS011;46188;52.324;8.032;2024-02-21T03:16:52;18.85;;;10.95;;
60344;SDS011;46188;52.324;8.032;2024-02-21T03:19:17;20.98;;;10.25;;
60344;SDS011;46188;52.324;8.032;2024-02-21T03:21:43;19.02;;;10.52;;
60344;SDS011;46188;52.324;8.032;2024-02-21T03:24:08;17.02;;;10.02;;
60344;SDS011;46188;52.324;8.032;2024-02-21T03:26:33;14.98;;;10.75;;
60344;SDS011;46188;52.324;8.032;2024-02-21T03:28:58;17.23;;;9.95;;
60344;SDS011;46188;52.324;8.032;2024-02-21T03:31:24;18.17;;;9.93;;
60344;SDS011;46188;52.324;8.032;2024-02-21T03:33:49;17.83;;;9.68;;
60344;SDS011;46188;52.324;8.032;2024-02-21T03:36:14;18.20;;;9.95;;
60344;SDS011;46188;52.324;8.032;2024-02-21T03:38:40;19.83;;;9.57;;
60344;SDS011;46188;52.324;8.032;2024-02-21T03:41:05;17.65;;;9.77;;
60344;SDS011;46188;52.324;8.032;2024-02-21T03:43:30;21.08;;;10.48;;
60344;SDS011;46188;52.324;8.032;2024-02-21T03:45:56;16.95;;;9.43;;
60344;SDS011;46188;52.324;8.032;2024-02-21T03:48:21;24.13;;;9.60;;
60344;SDS011;46188;52.324;8.032;2024-02-21T03:50:46;17.10;;;9.32;;
60344;SDS011;46188;52.324;8.032;2024-02-21T03:53:12;16.10;;;10.48;;
60344;SDS011;46188;52.324;8.032;2024-02-21T03:55:37;19.23;;;10.88;;
60344;SDS011;46188;52.324;8.032;2024-02-21T03:58:02;17.48;;;10.40;;
60344;SDS011;46188;52.324;8.032;2024-02-21T04:00:28;16.02;;;10.38;;
60344;SDS011;46188;52.324;8.032;2024-02-21T04:02:53;19.92;;;10.52;;
60344;SDS011;46188;52.324;8.032;2024-02-21T04:05:18;16.65;;;10.07;;
60344;SDS011;46188;52.324;8.032;2024-02-21T04:07:44;15.45;;;9.95;;
60344;SDS011;46188;52.324;8.032;2024-02-21T04:10:09;16.67;;;10.15;;
60344;SDS011;46188;52.324;8.032;2024-02-21T04:12:34;17.40;;;10.75;;
60344;SDS011;46188;52.324;8.032;2024-02-21T04:14:59;23.90;;;11.05;;
60344;SDS011;46188;52.324;8.032;2024-02-21T04:17:25;20.25;;;10.75;;
60344;SDS011;46188;52.324;8.032;2024-02-21T04:19:50;15.25;;;9.50;;
60344;SDS011;46188;52.324;8.032;2024-02-21T04:22:18;18.48;;;10.85;;
60344;SDS011;46188;52.324;8.032;2024-02-21T04:24:43;19.67;;;11.00;;
60344;SDS011;46188;52.324;8.032;2024-02-21T04:27:08;14.50;;;9.38;;
60344;SDS011;46188;52.324;8.032;2024-02-21T04:29:33;23.48;;;11.32;;
60344;SDS011;46188;52.324;8.032;2024-02-21T04:31:59;19.30;;;9.60;;
60344;SDS011;46188;52.324;8.032;2024-02-21T04:34:26;16.42;;;10.32;;
60344;SDS011;46188;52.324;8.032;2024-02-21T04:36:52;17.15;;;10.52;;
60344;SDS011;46188;52.324;8.032;2024-02-21T04:39:17;20.13;;;10.43;;
60344;SDS011;46188;52.324;8.032;2024-02-21T04:41:42;22.83;;;10.88;;
60344;SDS011;46188;52.324;8.032;2024-02-21T04:44:07;22.90;;;10.80;;
60344;SDS011;46188;52.324;8.032;2024-02-21T04:46:33;15.70;;;9.48;;
60344;SDS011;46188;52.324;8.032;2024-02-21T04:48:59;16.65;;;10.23;;
60344;SDS011;46188;52.324;8.032;2024-02-21T04:51:24;23.02;;;10.50;;
60344;SDS011;46188;52.324;8.032;2024-02-21T04:53:49;19.10;;;9.95;;
60344;SDS011;46188;52.324;8.032;2024-02-21T04:56:14;19.95;;;10.25;;
60344;SDS011;46188;52.324;8.032;2024-02-21T04:58:40;19.13;;;9.68;;
60344;SDS011;46188;52.324;8.032;2024-02-21T05:01:05;21.13;;;10.15;;
60344;SDS011;46188;52.324;8.032;2024-02-21T05:03:30;20.35;;;9.80;;
60344;SDS011;46188;52.324;8.032;2024-02-21T05:05:56;21.05;;;10.52;;
60344;SDS011;46188;52.324;8.032;2024-02-21T05:08:21;17.50;;;9.50;;
60344;SDS011;46188;52.324;8.032;2024-02-21T05:10:46;18.10;;;8.98;;
60344;SDS011;46188;52.324;8.032;2024-02-21T05:13:11;24.73;;;10.77;;
60344;SDS011;46188;52.324;8.032;2024-02-21T05:15:37;22.02;;;10.98;;
60344;SDS011;46188;52.324;8.032;2024-02-21T05:18:02;28.58;;;10.88;;
60344;SDS011;46188;52.324;8.032;2024-02-21T05:20:28;17.02;;;9.85;;
60344;SDS011;46188;52.324;8.032;2024-02-21T05:22:53;19.05;;;9.95;;
60344;SDS011;46188;52.324;8.032;2024-02-21T05:25:18;17.30;;;9.80;;
60344;SDS011;46188;52.324;8.032;2024-02-21T05:27:44;17.23;;;9.77;;
60344;SDS011;46188;52.324;8.032;2024-02-21T05:30:09;16.73;;;9.52;;
60344;SDS011;46188;52.324;8.032;2024-02-21T05:32:35;20.60;;;10.20;;
60344;SDS011;46188;52.324;8.032;2024-02-21T05:35:00;22.17;;;10.90;;
60344;SDS011;46188;52.324;8.032;2024-02-21T05:37:25;15.15;;;9.25;;
60344;SDS011;46188;52.324;8.032;2024-02-21T05:39:51;21.00;;;10.77;;
60344;SDS011;46188;52.324;8.032;2024-02-21T05:42:16;16.20;;;9.25;;
60344;SDS011;46188;52.324;8.032;2024-02-21T05:44:41;18.75;;;10.00;;
60344;SDS011;46188;52.324;8.032;2024-02-21T05:47:07;20.60;;;10.27;;
60344;SDS011;46188;52.324;8.032;2024-02-21T05:49:37;19.73;;;10.40;;
60344;SDS011;46188;52.324;8.032;2024-02-21T05:52:02;18.13;;;9.70;;
60344;SDS011;46188;52.324;8.032;2024-02-21T05:54:27;16.48;;;9.30;;
60344;SDS011;46188;52.324;8.032;2024-02-21T05:56:53;17.73;;;9.05;;
60344;SDS011;46188;52.324;8.032;2024-02-21T05:59:18;15.48;;;8.40;;
60344;SDS011;46188;52.324;8.032;2024-02-21T06:01:43;19.58;;;9.90;;
60344;SDS011;46188;52.324;8.032;2024-02-21T06:04:09;18.20;;;9.20;;
60344;SDS011;46188;52.324;8.032;2024-02-21T06:06:34;16.88;;;9.63;;
60344;SDS011;46188;52.324;8.032;2024-02-21T06:08:59;17.10;;;9.35;;
60344;SDS011;46188;52.324;8.032;2024-02-21T06:11:27;17.85;;;9.23;;
60344;SDS011;46188;52.324;8.032;2024-02-21T06:13:52;17.63;;;9.45;;
60344;SDS011;46188;52.324;8.032;2024-02-21T06:16:17;18.13;;;9.68;;
60344;SDS011;46188;52.324;8.032;2024-02-21T06:18:43;20.70;;;9.52;;
60344;SDS011;46188;52.324;8.032;2024-02-21T06:21:08;12.88;;;9.15;;
60344;SDS011;46188;52.324;8.032;2024-02-21T06:23:33;13.45;;;9.75;;
60344;SDS011;46188;52.324;8.032;2024-02-21T06:25:59;17.52;;;8.52;;
60344;SDS011;46188;52.324;8.032;2024-02-21T06:28:24;17.73;;;9.05;;
60344;SDS011;46188;52.324;8.032;2024-02-21T06:30:51;11.93;;;9.27;;
60344;SDS011;46188;52.324;8.032;2024-02-21T06:33:16;13.52;;;8.52;;
60344;SDS011;46188;52.324;8.032;2024-02-21T06:35:41;16.25;;;8.77;;
60344;SDS011;46188;52.324;8.032;2024-02-21T06:38:07;14.50;;;8.52;;
60344;SDS011;46188;52.324;8.032;2024-02-21T06:40:33;15.82;;;8.93;;
60344;SDS011;46188;52.324;8.032;2024-02-21T06:43:03;17.33;;;9.70;;
60344;SDS011;46188;52.324;8.032;2024-02-21T06:45:29;18.88;;;8.63;;
60344;SDS011;46188;52.324;8.032;2024-02-21T06:47:54;13.30;;;8.80;;
60344;SDS011;46188;52.324;8.032;2024-02-21T06:50:22;17.45;;;8.23;;
60344;SDS011;46188;52.324;8.032;2024-02-21T06:52:48;14.23;;;8.93;;
60344;SDS011;46188;52.324;8.032;2024-02-21T06:55:13;12.65;;;8.35;;
60344;SDS011;46188;52.324;8.032;2024-02-21T06:57:38;20.25;;;8.75;;
60344;SDS011;46188;52.324;8.032;2024-02-21T07:00:03;14.13;;;9.05;;
60344;SDS011;46188;52.324;8.032;2024-02-21T07:02:34;14.52;;;8.70;;
60344;SDS011;46188;52.324;8.032;2024-02-21T07:04:59;15.73;;;8.98;;
60344;SDS011;46188;52.324;8.032;2024-02-21T07:07:25;15.93;;;8.52;;
60344;SDS011;46188;52.324;8.032;2024-02-21T07:09:50;15.20;;;8.50;;
60344;SDS011;46188;52.324;8.032;2024-02-21T07:12:16;18.08;;;8.55;;
60344;SDS011;46188;52.324;8.032;2024-02-21T07:14:42;16.75;;;9.07;;
60344;SDS011;46188;52.324;8.032;2024-02-21T07:17:07;14.45;;;8.32;;
60344;SDS011;46188;52.324;8.032;2024-02-21T07:19:32;12.43;;;8.40;;
60344;SDS011;46188;52.324;8.032;2024-02-21T07:22:00;11.02;;;8.15;;
60344;SDS011;46188;52.324;8.032;2024-02-21T07:24:25;16.00;;;8.43;;
60344;SDS011;46188;52.324;8.032;2024-02-21T07:26:50;14.77;;;8.70;;
60344;SDS011;46188;52.324;8.032;2024-02-21T07:29:16;13.15;;;8.20;;
60344;SDS011;46188;52.324;8.032;2024-02-21T07:31:41;15.02;;;8.50;;
60344;SDS011;46188;52.324;8.032;2024-02-21T07:34:07;16.48;;;8.07;;
60344;SDS011;46188;52.324;8.032;2024-02-21T07:36:33;16.15;;;8.73;;
60344;SDS011;46188;52.324;8.032;2024-02-21T07:38:58;16.98;;;8.27;;
60344;SDS011;46188;52.324;8.032;2024-02-21T07:41:24;15.98;;;9.00;;
60344;SDS011;46188;52.324;8.032;2024-02-21T07:43:50;15.57;;;8.82;;
60344;SDS011;46188;52.324;8.032;2024-02-21T07:46:16;15.27;;;8.25;;
60344;SDS011;46188;52.324;8.032;2024-02-21T07:48:42;16.17;;;8.48;;
60344;SDS011;46188;52.324;8.032;2024-02-21T07:51:07;12.23;;;7.78;;
60344;SDS011;46188;52.324;8.032;2024-02-21T07:53:32;15.95;;;8.13;;
60344;SDS011;46188;52.324;8.032;2024-02-21T07:55:58;16.67;;;8.32;;
60344;SDS011;46188;52.324;8.032;2024-02-21T07:58:23;11.63;;;7.40;;
60344;SDS011;46188;52.324;8.032;2024-02-21T08:00:48;15.13;;;7.85;;
60344;SDS011;46188;52.324;8.032;2024-02-21T08:03:13;11.60;;;7.60;;
60344;SDS011;46188;52.324;8.032;2024-02-21T08:05:40;13.35;;;7.25;;
60344;SDS011;46188;52.324;8.032;2024-02-21T08:08:05;11.27;;;7.28;;
60344;SDS011;46188;52.324;8.032;2024-02-21T08:10:32;14.18;;;8.38;;
60344;SDS011;46188;52.324;8.032;2024-02-21T08:12:57;12.50;;;7.90;;
60344;SDS011;46188;52.324;8.032;2024-02-21T08:15:22;15.93;;;7.88;;
60344;SDS011;46188;52.324;8.032;2024-02-21T08:17:53;12.85;;;7.65;;
60344;SDS011;46188;52.324;8.032;2024-02-21T08:20:18;12.48;;;7.53;;
60344;SDS011;46188;52.324;8.032;2024-02-21T08:22:43;13.88;;;8.40;;
60344;SDS011;46188;52.324;8.032;2024-02-21T08:25:09;14.23;;;8.43;;
60344;SDS011;46188;52.324;8.032;2024-02-21T08:27:34;10.45;;;7.95;;
60344;SDS011;46188;52.324;8.032;2024-02-21T08:29:59;12.00;;;7.85;;
60344;SDS011;46188;52.324;8.032;2024-02-21T08:32:24;14.25;;;8.73;;
60344;SDS011;46188;52.324;8.032;2024-02-21T08:34:50;18.42;;;8.45;;
60344;SDS011;46188;52.324;8.032;2024-02-21T08:37:15;15.13;;;8.77;;
60344;SDS011;46188;52.324;8.032;2024-02-21T08:39:40;15.75;;;7.05;;
60344;SDS011;46188;52.324;8.032;2024-02-21T08:42:05;13.70;;;8.05;;
60344;SDS011;46188;52.324;8.032;2024-02-21T08:44:31;14.43;;;7.80;;
60344;SDS011;46188;52.324;8.032;2024-02-21T08:46:56;10.18;;;8.35;;
60344;SDS011;46188;52.324;8.032;2024-02-21T08:49:22;13.30;;;8.50;;
60344;SDS011;46188;52.324;8.032;2024-02-21T08:51:47;16.85;;;8.93;;
60344;SDS011;46188;52.324;8.032;2024-02-21T08:54:12;15.95;;;8.27;;
60344;SDS011;46188;52.324;8.032;2024-02-21T08:56:38;12.23;;;8.50;;
60344;SDS011;46188;52.324;8.032;2024-02-21T08:59:03;15.88;;;9.23;;
60344;SDS011;46188;52.324;8.032;2024-02-21T09:01:28;12.27;;;7.88;;
60344;SDS011;46188;52.324;8.032;2024-02-21T09:03:54;15.23;;;8.30;;
60344;SDS011;46188;52.324;8.032;2024-02-21T09:06:21;15.30;;;8.55;;
60344;SDS011;46188;52.324;8.032;2024-02-21T09:08:46;13.93;;;8.38;;
60344;SDS011;46188;52.324;8.032;2024-02-21T09:11:12;17.98;;;8.63;;
60344;SDS011;46188;52.324;8.032;2024-02-21T09:13:37;13.38;;;8.40;;
60344;SDS011;46188;52.324;8.032;2024-02-21T09:16:02;15.35;;;8.98;;
60344;SDS011;46188;52.324;8.032;2024-02-21T09:18:28;17.13;;;9.15;;
60344;SDS011;46188;52.324;8.032;2024-02-21T09:20:55;13.93;;;9.32;;
60344;SDS011;46188;52.324;8.032;2024-02-21T09:23:20;12.45;;;8.73;;
60344;SDS011;46188;52.324;8.032;2024-02-21T09:25:49;13.50;;;8.02;;
60344;SDS011;46188;52.324;8.032;2024-02-21T09:28:14;11.80;;;8.38;;
60344;SDS011;46188;52.324;8.032;2024-02-21T09:30:39;13.32;;;8.02;;
60344;SDS011;46188;52.324;8.032;2024-02-21T09:33:05;13.82;;;8.23;;
60344;SDS011;46188;52.324;8.032;2024-02-21T09:35:30;12.15;;;7.35;;
60344;SDS011;46188;52.324;8.032;2024-02-21T09:37:56;11.95;;;7.35;;
60344;SDS011;46188;52.324;8.032;2024-02-21T09:40:21;10.15;;;7.68;;
60344;SDS011;46188;52.324;8.032;2024-02-21T09:42:47;12.20;;;7.50;;
60344;SDS011;46188;52.324;8.032;2024-02-21T09:45:20;14.00;;;7.47;;
60344;SDS011;46188;52.324;8.032;2024-02-21T09:50:39;12.32;;;6.55;;
60344;SDS011;46188;52.324;8.032;2024-02-21T09:53:08;8.13;;;6.50;;
60344;SDS011;46188;52.324;8.032;2024-02-21T09:55:36;13.02;;;7.05;;
60344;SDS011;46188;52.324;8.032;2024-02-21T09:58:05;11.80;;;6.78;;
60344;SDS011;46188;52.324;8.032;2024-02-21T10:00:30;8.77;;;7.07;;
60344;SDS011;46188;52.324;8.032;2024-02-21T10:02:55;7.88;;;6.50;;
60344;SDS011;46188;52.324;8.032;2024-02-21T10:05:21;8.95;;;5.55;;
60344;SDS011;46188;52.324;8.032;2024-02-21T10:07:46;12.13;;;6.60;;
60344;SDS011;46188;52.324;8.032;2024-02-21T10:10:13;9.05;;;7.18;;
60344;SDS011;46188;52.324;8.032;2024-02-21T10:12:49;13.00;;;6.75;;
60344;SDS011;46188;52.324;8.032;2024-02-21T10:15:19;8.27;;;6.00;;
60344;SDS011;46188;52.324;8.032;2024-02-21T10:17:45;9.27;;;6.25;;
60344;SDS011;46188;52.324;8.032;2024-02-21T10:20:11;10.65;;;7.10;;
60344;SDS011;46188;52.324;8.032;2024-02-21T10:22:37;10.93;;;6.53;;
60344;SDS011;46188;52.324;8.032;2024-02-21T10:25:22;16.20;;;7.75;;
60344;SDS011;46188;52.324;8.032;2024-02-21T10:27:47;12.60;;;6.27;;
60344;SDS011;46188;52.324;8.032;2024-02-21T10:30:13;8.15;;;7.03;;
60344;SDS011;46188;52.324;8.032;2024-02-21T10:32:54;9.27;;;6.53;;
60344;SDS011;46188;52.324;8.032;2024-02-21T10:35:29;10.13;;;6.10;;
60344;SDS011;46188;52.324;8.032;2024-02-21T10:37:56;8.05;;;5.97;;
60344;SDS011;46188;52.324;8.032;2024-02-21T10:40:23;6.18;;;5.57;;
60344;SDS011;46188;52.324;8.032;2024-02-21T10:42:49;11.90;;;6.25;;
60344;SDS011;46188;52.324;8.032;2024-02-21T10:45:21;6.68;;;5.97;;
60344;SDS011;46188;52.324;8.032;2024-02-21T10:47:49;9.32;;;5.75;;
60344;SDS011;46188;52.324;8.032;2024-02-21T10:50:20;8.98;;;6.03;;
60344;SDS011;46188;52.324;8.032;2024-02-21T10:53:03;8.85;;;6.03;;
60344;SDS011;46188;52.324;8.032;2024-02-21T10:55:44;11.93;;;6.47;;
60344;SDS011;46188;52.324;8.032;2024-02-21T10:58:17;11.35;;;6.40;;
60344;SDS011;46188;52.324;8.032;2024-02-21T11:00:43;7.00;;;6.07;;
60344;SDS011;46188;52.324;8.032;2024-02-21T11:03:08;11.23;;;6.88;;
60344;SDS011;46188;52.324;8.032;2024-02-21T11:05:34;11.43;;;6.05;;
60344;SDS011;46188;52.324;8.032;2024-02-21T11:08:02;11.95;;;6.32;;
60344;SDS011;46188;52.324;8.032;2024-02-21T11:10:30;9.95;;;6.60;;
60344;SDS011;46188;52.324;8.032;2024-02-21T11:13:08;7.35;;;6.53;;
60344;SDS011;46188;52.324;8.032;2024-02-21T11:15:36;10.48;;;6.43;;
60344;SDS011;46188;52.324;8.032;2024-02-21T11:18:02;7.70;;;6.57;;
60344;SDS011;46188;52.324;8.032;2024-02-21T11:20:34;8.73;;;6.57;;
60344;SDS011;46188;52.324;8.032;2024-02-21T11:23:00;8.63;;;6.95;;
60344;SDS011;46188;52.324;8.032;2024-02-21T11:25:26;9.25;;;7.38;;
60344;SDS011;46188;52.324;8.032;2024-02-21T11:27:58;8.73;;;6.80;;
60344;SDS011;46188;52.324;8.032;2024-02-21T11:30:29;10.30;;;6.78;;
60344;SDS011;46188;52.324;8.032;2024-02-21T11:33:02;8.48;;;7.22;;
60344;SDS011;46188;52.324;8.032;2024-02-21T11:35:31;9.65;;;7.82;;
60344;SDS011;46188;52.324;8.032;2024-02-21T11:38:07;8.00;;;7.20;;
60344;SDS011;46188;52.324;8.032;2024-02-21T11:40:41;10.90;;;7.47;;
60344;SDS011;46188;52.324;8.032;2024-02-21T11:43:09;8.70;;;7.30;;
60344;SDS011;46188;52.324;8.032;2024-02-21T11:45:34;7.38;;;6.68;;
60344;SDS011;46188;52.324;8.032;2024-02-21T11:48:00;8.30;;;7.55;;
60344;SDS011;46188;52.324;8.032;2024-02-21T11:50:28;8.30;;;7.47;;
60344;SDS011;46188;52.324;8.032;2024-02-21T11:52:57;8.23;;;7.30;;
60344;SDS011;46188;52.324;8.032;2024-02-21T11:55:22;15.45;;;8.82;;
60344;SDS011;46188;52.324;8.032;2024-02-21T11:57:48;8.82;;;7.97;;
60344;SDS011;46188;52.324;8.032;2024-02-21T12:00:14;11.05;;;8.73;;
60344;SDS011;46188;52.324;8.032;2024-02-21T12:02:40;10.20;;;7.95;;
60344;SDS011;46188;52.324;8.032;2024-02-21T12:05:06;11.15;;;8.18;;
60344;SDS011;46188;52.324;8.032;2024-02-21T12:07:32;9.02;;;8.13;;
60344;SDS011;46188;52.324;8.032;2024-02-21T12:10:00;9.65;;;8.52;;
60344;SDS011;46188;52.324;8.032;2024-02-21T12:12:25;9.80;;;7.43;;
60344;SDS011;46188;52.324;8.032;2024-02-21T12:14:57;10.15;;;7.00;;
60344;SDS011;46188;52.324;8.032;2024-02-21T12:17:25;8.05;;;7.20;;
60344;SDS011;46188;52.324;8.032;2024-02-21T12:19:50;7.43;;;6.65;;
60344;SDS011;46188;52.324;8.032;2024-02-21T12:22:16;7.00;;;6.30;;
60344;SDS011;46188;52.324;8.032;2024-02-21T12:24:43;6.13;;;5.53;;
60344;SDS011;46188;52.324;8.032;2024-02-21T12:27:12;7.75;;;6.03;;
60344;SDS011;46188;52.324;8.032;2024-02-21T12:29:37;7.75;;;5.50;;
60344;SDS011;46188;52.324;8.032;2024-02-21T12:32:03;7.03;;;6.32;;
60344;SDS011;46188;52.324;8.032;2024-02-21T12:34:29;6.45;;;5.80;;
60344;SDS011;46188;52.324;8.032;2024-02-21T12:36:57;8.80;;;6.75;;
60344;SDS011;46188;52.324;8.032;2024-02-21T12:39:23;11.82;;;6.75;;
60344;SDS011;46188;52.324;8.032;2024-02-21T12:41:48;9.00;;;6.57;;
60344;SDS011;46188;52.324;8.032;2024-02-21T12:44:14;9.23;;;7.15;;
60344;SDS011;46188;52.324;8.032;2024-02-21T12:46:41;8.85;;;6.60;;
60344;SDS011;46188;52.324;8.032;2024-02-21T12:49:06;8.15;;;6.35;;
60344;SDS011;46188;52.324;8.032;2024-02-21T12:51:35;15.80;;;7.07;;
60344;SDS011;46188;52.324;8.032;2024-02-21T12:54:01;9.20;;;6.85;;
60344;SDS011;46188;52.324;8.032;2024-02-21T12:56:27;8.38;;;6.88;;
60344;SDS011;46188;52.324;8.032;2024-02-21T12:58:53;10.38;;;7.15;;
60344;SDS011;46188;52.324;8.032;2024-02-21T13:01:18;13.45;;;7.20;;
60344;SDS011;46188;52.324;8.032;2024-02-21T13:03:44;10.45;;;6.78;;
60344;SDS011;46188;52.324;8.032;2024-02-21T13:06:09;10.43;;;7.05;;
60344;SDS011;46188;52.324;8.032;2024-02-21T13:08:35;12.73;;;7.70;;
60344;SDS011;46188;52.324;8.032;2024-02-21T13:11:01;10.55;;;8.50;;
60344;SDS011;46188;52.324;8.032;2024-02-21T13:13:26;13.25;;;7.93;;
60344;SDS011;46188;52.324;8.032;2024-02-21T13:15:52;11.60;;;7.10;;
60344;SDS011;46188;52.324;8.032;2024-02-21T13:18:17;12.20;;;7.45;;
60344;SDS011;46188;52.324;8.032;2024-02-21T13:20:42;11.23;;;7.03;;
60344;SDS011;46188;52.324;8.032;2024-02-21T13:23:07;9.90;;;7.78;;
60344;SDS011;46188;52.324;8.032;2024-02-21T13:25:33;10.48;;;7.47;;
60344;SDS011;46188;52.324;8.032;2024-02-21T13:27:58;10.07;;;7.80;;
60344;SDS011;46188;52.324;8.032;2024-02-21T13:30:23;12.68;;;8.20;;
60344;SDS011;46188;52.324;8.032;2024-02-21T13:32:50;12.57;;;8.38;;
60344;SDS011;46188;52.324;8.032;2024-02-21T13:35:15;9.00;;;7.70;;
60344;SDS011;46188;52.324;8.032;2024-02-21T13:37:41;12.80;;;8.45;;
60344;SDS011;46188;52.324;8.032;2024-02-21T13:40:07;13.80;;;8.77;;
60344;SDS011;46188;52.324;8.032;2024-02-21T13:42:36;12.73;;;7.45;;
60344;SDS011;46188;52.324;8.032;2024-02-21T13:45:02;15.38;;;8.98;;
60344;SDS011;46188;52.324;8.032;2024-02-21T13:47:30;11.18;;;8.18;;
60344;SDS011;46188;52.324;8.032;2024-02-21T13:49:55;9.85;;;7.80;;
60344;SDS011;46188;52.324;8.032;2024-02-21T13:52:21;9.57;;;7.47;;
60344;SDS011;46188;52.324;8.032;2024-02-21T13:54:46;11.18;;;7.72;;
60344;SDS011;46188;52.324;8.032;2024-02-21T13:57:12;10.90;;;8.32;;
60344;SDS011;46188;52.324;8.032;2024-02-21T13:59:37;11.35;;;8.75;;
60344;SDS011;46188;52.324;8.032;2024-02-21T14:02:04;15.40;;;8.15;;
60344;SDS011;46188;52.324;8.032;2024-02-21T14:04:30;11.73;;;8.93;;
60344;SDS011;46188;52.324;8.032;2024-02-21T14:06:56;10.85;;;8.38;;
60344;SDS011;46188;52.324;8.032;2024-02-21T14:09:21;11.82;;;7.68;;
60344;SDS011;46188;52.324;8.032;2024-02-21T14:11:46;9.75;;;8.38;;
60344;SDS011;46188;52.324;8.032;2024-02-21T14:14:11;15.00;;;8.90;;
60344;SDS011;46188;52.324;8.032;2024-02-21T14:16:37;12.13;;;7.85;;
60344;SDS011;46188;52.324;8.032;2024-02-21T14:19:02;13.60;;;8.60;;
60344;SDS011;46188;52.324;8.032;2024-02-21T14:21:27;12.43;;;8.20;;
60344;SDS011;46188;52.324;8.032;2024-02-21T14:23:56;13.48;;;8.23;;
60344;SDS011;46188;52.324;8.032;2024-02-21T14:26:22;8.82;;;8.02;;
60344;SDS011;46188;52.324;8.032;2024-02-21T14:28:47;9.35;;;7.65;;
60344;SDS011;46188;52.324;8.032;2024-02-21T14:31:12;10.70;;;7.85;;